Terminal Aerodrome Forecast
Issued by NWS

Home | Current Version | Previous Version | Text Only | Print | Product List | Glossary Off
Versions: 1 2 3 4 5 6 7 8 9 10 11 12 13 14 15 16 17 18 19

500
FTUS43 KFGF 231729
TAFBJI
TAF
KBJI 231729Z 2318/2418 07007KT 5SM -SN OVC025
      TEMPO 2318/2320 1SM -SN BKN012
     FM232100 09009KT P6SM OVC014
     FM240500 10009KT P6SM OVC010=

USA.gov is the U.S. government's official web portal to all federal, state and local government web resources and services.